createdAt,value
2023-04-18T00:00:21.696Z,4.93
2023-04-18T00:01:24.960Z,4.30
2023-04-18T00:02:29.051Z,4.78
2023-04-18T00:03:32.227Z,4.82
2023-04-18T00:04:34.654Z,4.78
2023-04-18T00:05:37.956Z,5.85
2023-04-18T00:06:40.117Z,4.80
2023-04-18T00:07:43.101Z,5.00
2023-04-18T00:08:44.935Z,5.07
2023-04-18T00:09:47.849Z,5.18
2023-04-18T00:10:49.751Z,5.05
2023-04-18T00:11:54.124Z,5.63
2023-04-18T00:12:56.025Z,5.82
2023-04-18T00:13:59.458Z,5.53
2023-04-18T00:15:02.350Z,5.30
2023-04-18T00:16:05.976Z,5.57
2023-04-18T00:17:08.895Z,4.82
2023-04-18T00:18:12.564Z,5.43
2023-04-18T00:19:14.492Z,5.43
2023-04-18T00:20:17.597Z,4.65
2023-04-18T00:21:19.771Z,4.97
2023-04-18T00:22:22.803Z,5.60
2023-04-18T00:23:28.021Z,5.70
2023-04-18T00:24:31.535Z,6.00
2023-04-18T00:25:33.652Z,5.50
2023-04-18T00:26:36.569Z,4.97
2023-04-18T00:27:39.916Z,5.47
2023-04-18T00:28:42.744Z,5.85
2023-04-18T00:29:45.731Z,5.15
2023-04-18T00:30:49.950Z,5.05
2023-04-18T00:31:51.876Z,6.10
2023-04-18T00:32:54.834Z,4.35
2023-04-18T00:33:56.753Z,5.40
2023-04-18T00:35:00.079Z,5.53
2023-04-18T00:36:02.211Z,6.28
2023-04-18T00:37:05.187Z,5.30
2023-04-18T00:38:07.095Z,7.07
2023-04-18T00:39:09.947Z,5.55
2023-04-18T00:40:12.297Z,5.10
2023-04-18T00:41:15.344Z,5.22
2023-04-18T00:42:17.401Z,6.10
2023-04-18T00:43:25.261Z,5.75
2023-04-18T00:44:27.494Z,6.43
2023-04-18T00:45:30.860Z,7.30
2023-04-18T00:46:32.779Z,7.15
2023-04-18T00:47:36.184Z,6.55
2023-04-18T00:48:39.133Z,6.95
2023-04-18T00:49:42.142Z,6.03
2023-04-18T00:50:45.267Z,6.93
2023-04-18T00:51:48.834Z,5.55
2023-04-18T00:52:52.021Z,6.75
2023-04-18T00:53:55.453Z,6.57
2023-04-18T00:54:57.378Z,5.78
2023-04-18T00:56:00.421Z,6.97
2023-04-18T00:57:02.703Z,6.38
2023-04-18T00:58:06.485Z,6.60
2023-04-18T00:59:10.285Z,7.00
2023-04-18T01:00:15.150Z,7.43
2023-04-18T01:01:18.128Z,6.60
2023-04-18T01:02:21.326Z,6.63
2023-04-18T01:03:24.130Z,8.20
2023-04-18T01:04:27.351Z,8.02
2023-04-18T01:05:29.797Z,8.00
2023-04-18T01:06:33.916Z,7.38
2023-04-18T01:07:40.701Z,7.32
2023-04-18T01:08:44.267Z,7.30
2023-04-18T01:09:47.132Z,6.80
2023-04-18T01:10:50.638Z,6.93
2023-04-18T01:11:52.742Z,7.10
2023-04-18T01:13:11.183Z,7.30
2023-04-18T01:14:15.823Z,7.90
2023-04-18T01:15:17.734Z,7.25
2023-04-18T01:16:20.816Z,7.80
2023-04-18T01:17:24.574Z,7.75
2023-04-18T01:18:27.611Z,7.25
2023-04-18T01:19:29.843Z,7.05
2023-04-18T01:20:35.359Z,7.38
2023-04-18T01:21:37.445Z,7.85
2023-04-18T01:22:40.867Z,7.50
2023-04-18T01:23:43.852Z,7.20
2023-04-18T01:24:52.478Z,7.80
2023-04-18T01:25:55.698Z,7.68
2023-04-18T01:27:02.946Z,7.25
2023-04-18T01:28:07.181Z,7.60
2023-04-18T01:29:09.708Z,7.60
2023-04-18T01:30:13.398Z,7.22
2023-04-18T01:31:15.340Z,7.32
2023-04-18T01:32:20.474Z,7.40
2023-04-18T01:33:22.836Z,7.72
2023-04-18T01:34:25.709Z,7.20
2023-04-18T01:35:27.663Z,7.25
2023-04-18T01:36:32.648Z,6.65
2023-04-18T01:37:34.498Z,8.75
2023-04-18T01:38:37.325Z,7.88
2023-04-18T01:39:39.659Z,7.13
2023-04-18T01:40:44.100Z,8.73
2023-04-18T01:41:45.946Z,7.10
2023-04-18T01:42:48.825Z,8.40
2023-04-18T01:43:50.678Z,7.45
2023-04-18T01:44:53.547Z,9.07
2023-04-18T01:45:55.422Z,7.72
2023-04-18T01:46:58.333Z,8.63
2023-04-18T01:48:00.662Z,7.07
2023-04-18T01:49:03.692Z,8.90
2023-04-18T01:50:06.601Z,7.80
2023-04-18T01:51:09.637Z,8.20
2023-04-18T01:52:14.177Z,8.40
2023-04-18T01:53:17.563Z,8.65
2023-04-18T01:54:19.677Z,7.72
2023-04-18T01:55:22.564Z,8.43
2023-04-18T01:56:26.582Z,8.60
2023-04-18T01:57:29.680Z,9.48
2023-04-18T01:58:31.552Z,9.15
2023-04-18T01:59:34.374Z,8.98
2023-04-18T02:00:37.147Z,8.65
2023-04-18T02:01:41.744Z,8.32
2023-04-18T02:02:43.805Z,9.50
2023-04-18T02:03:46.990Z,10.35
2023-04-18T02:04:48.918Z,9.05
2023-04-18T02:05:52.413Z,9.10
2023-04-18T02:06:54.296Z,8.45
2023-04-18T02:07:57.764Z,10.35
2023-04-18T02:08:59.660Z,9.77
2023-04-18T02:10:02.495Z,9.25
2023-04-18T02:11:04.558Z,10.30
2023-04-18T02:12:08.962Z,10.20
2023-04-18T02:13:11.178Z,10.18
2023-04-18T02:14:14.385Z,8.85
2023-04-18T02:15:16.472Z,8.20
2023-04-18T02:16:19.342Z,9.85
2023-04-18T02:17:23.559Z,9.57
2023-04-18T02:18:26.975Z,10.07
2023-04-18T02:19:30.121Z,9.68
2023-04-18T02:20:33.553Z,9.55
2023-04-18T02:21:36.894Z,10.23
2023-04-18T02:22:39.885Z,10.15
2023-04-18T02:23:41.741Z,11.23
2023-04-18T02:24:44.628Z,9.48
2023-04-18T02:25:46.456Z,12.27
2023-04-18T02:26:49.605Z,9.93
2023-04-18T02:27:52.843Z,10.98
2023-04-18T02:28:55.650Z,10.52
2023-04-18T02:29:57.611Z,10.52
2023-04-18T02:31:01.248Z,9.80
2023-04-18T02:32:03.417Z,10.38
2023-04-18T02:33:06.477Z,10.88
2023-04-18T02:34:08.501Z,10.20
2023-04-18T02:35:12.596Z,10.05
2023-04-18T02:36:15.373Z,9.82
2023-04-18T02:37:18.640Z,12.15
2023-04-18T02:38:20.562Z,11.13
2023-04-18T02:39:28.014Z,11.25
2023-04-18T02:40:29.954Z,10.45
2023-04-18T02:41:37.650Z,12.20
2023-04-18T02:42:39.713Z,10.38
2023-04-18T02:43:43.875Z,10.60
2023-04-18T02:44:45.871Z,10.80
2023-04-18T02:45:48.769Z,11.93
2023-04-18T02:46:50.632Z,10.30
2023-04-18T02:47:55.867Z,12.30
2023-04-18T02:48:58.644Z,10.98
2023-04-18T02:50:01.549Z,11.57
2023-04-18T02:51:03.735Z,11.60
2023-04-18T02:52:08.801Z,10.50
2023-04-18T02:53:10.677Z,9.68
2023-04-18T02:54:28.114Z,10.93
2023-04-18T02:55:39.345Z,10.15
2023-04-18T02:56:43.559Z,10.98
2023-04-18T02:57:58.876Z,11.40
2023-04-18T02:59:34.831Z,12.00
2023-04-18T03:00:50.405Z,11.52
2023-04-18T03:02:16.116Z,11.38
2023-04-18T03:03:25.107Z,11.63
2023-04-18T03:04:37.617Z,11.20
2023-04-18T03:05:42.830Z,12.05
2023-04-18T03:06:45.921Z,11.15
2023-04-18T03:07:48.876Z,10.63
2023-04-18T03:08:51.762Z,12.93
2023-04-18T03:09:54.240Z,11.70
2023-04-18T03:11:05.195Z,13.45
2023-04-18T03:12:07.132Z,12.60
2023-04-18T03:13:11.742Z,12.68
2023-04-18T03:14:15.082Z,11.52
2023-04-18T03:15:27.527Z,12.10
2023-04-18T03:16:29.740Z,12.88
2023-04-18T03:17:32.785Z,11.18
2023-04-18T03:18:35.116Z,10.95
2023-04-18T03:19:38.696Z,11.82
2023-04-18T03:20:47.231Z,12.80
2023-04-18T03:21:50.758Z,11.77
2023-04-18T03:22:52.691Z,11.45
2023-04-18T03:24:00.003Z,12.90
2023-04-18T03:25:01.962Z,12.38
2023-04-18T03:26:17.431Z,10.68
2023-04-18T03:27:20.758Z,12.98
2023-04-18T03:28:24.225Z,11.85
2023-04-18T03:29:26.139Z,11.82
2023-04-18T03:30:30.316Z,11.90
2023-04-18T03:31:33.967Z,12.18
2023-04-18T03:32:37.238Z,12.77
2023-04-18T03:33:39.267Z,12.85
2023-04-18T03:34:45.848Z,12.32
2023-04-18T03:35:47.927Z,12.20
2023-04-18T03:36:50.893Z,12.65
2023-04-18T03:37:52.689Z,10.45
2023-04-18T03:39:05.657Z,12.10
2023-04-18T03:40:10.757Z,12.50
2023-04-18T03:41:13.671Z,12.45
2023-04-18T03:42:16.715Z,12.00
2023-04-18T03:43:20.673Z,11.90
2023-04-18T03:44:22.597Z,12.15
2023-04-18T03:45:25.627Z,11.43
2023-04-18T03:46:29.163Z,12.02
2023-04-18T03:47:33.493Z,11.80
2023-04-18T03:48:37.297Z,11.43
2023-04-18T03:49:44.560Z,13.45
2023-04-18T03:50:46.815Z,13.63
2023-04-18T03:51:49.687Z,12.02
2023-04-18T03:52:52.338Z,13.18
2023-04-18T03:53:55.292Z,13.20
2023-04-18T03:54:58.391Z,11.77
2023-04-18T03:56:07.062Z,11.73
2023-04-18T03:57:26.454Z,12.02
2023-04-18T03:58:29.712Z,12.90
2023-04-18T03:59:31.616Z,13.68
2023-04-18T04:00:34.923Z,14.18
2023-04-18T04:01:43.609Z,12.60
2023-04-18T04:02:46.660Z,11.82
2023-04-18T04:03:54.629Z,12.60
2023-04-18T04:04:58.089Z,10.85
2023-04-18T04:06:00.926Z,12.70
2023-04-18T04:07:04.140Z,13.25
2023-04-18T04:08:06.482Z,12.57
2023-04-18T04:09:10.289Z,11.70
2023-04-18T04:10:12.249Z,11.50
2023-04-18T04:11:15.248Z,12.80
2023-04-18T04:12:17.372Z,12.10
2023-04-18T04:13:20.229Z,13.40
2023-04-18T04:14:22.772Z,12.88
2023-04-18T04:15:25.658Z,12.85
2023-04-18T04:16:34.133Z,13.77
2023-04-18T04:17:39.424Z,14.35
2023-04-18T04:18:41.382Z,13.38
2023-04-18T04:19:44.239Z,12.93
2023-04-18T04:20:50.415Z,12.50
2023-04-18T04:22:08.110Z,11.95
2023-04-18T04:23:10.656Z,12.45
2023-04-18T04:24:15.680Z,13.07
2023-04-18T04:25:23.877Z,13.43
2023-04-18T04:26:30.616Z,11.60
2023-04-18T04:27:45.604Z,12.45
2023-04-18T04:28:49.824Z,12.13
2023-04-18T04:29:57.506Z,12.05
2023-04-18T04:30:59.409Z,14.18
2023-04-18T04:32:03.693Z,12.75
2023-04-18T04:33:12.374Z,14.50
2023-04-18T04:34:16.858Z,14.35
2023-04-18T04:35:19.034Z,13.70
2023-04-18T04:36:23.165Z,13.15
2023-04-18T04:37:27.705Z,12.95
2023-04-18T04:38:44.295Z,11.07
2023-04-18T04:39:47.175Z,13.25
2023-04-18T04:41:12.920Z,12.50
2023-04-18T04:42:15.316Z,11.93
2023-04-18T04:43:28.912Z,14.02
2023-04-18T04:44:31.924Z,14.30
2023-04-18T04:45:36.394Z,12.63
2023-04-18T04:46:40.303Z,14.13
2023-04-18T04:47:50.017Z,13.85
2023-04-18T04:48:54.419Z,14.23
2023-04-18T04:49:57.452Z,12.10
2023-04-18T04:51:00.791Z,11.00
2023-04-18T04:52:04.551Z,12.95
2023-04-18T04:53:06.776Z,12.60
2023-04-18T04:54:09.789Z,14.35
2023-04-18T04:55:11.788Z,15.13
2023-04-18T04:56:16.349Z,14.82
2023-04-18T04:57:18.558Z,12.25
2023-04-18T04:58:21.562Z,14.52
2023-04-18T04:59:43.180Z,12.63
2023-04-18T05:00:47.154Z,13.02
2023-04-18T05:01:49.829Z,13.35
2023-04-18T05:02:54.292Z,14.27
2023-04-18T05:03:58.341Z,14.60
2023-04-18T05:05:01.528Z,14.48
2023-04-18T05:06:03.808Z,13.73
2023-04-18T05:07:06.940Z,13.63
2023-04-18T05:08:08.806Z,14.75
2023-04-18T05:09:11.681Z,14.20
2023-04-18T05:10:14.587Z,12.77
2023-04-18T05:11:16.924Z,12.82
2023-04-18T05:12:19.884Z,14.60
2023-04-18T05:13:21.852Z,15.02
2023-04-18T05:14:25.142Z,12.95
2023-04-18T05:15:27.384Z,12.93
2023-04-18T05:16:30.441Z,13.90
2023-04-18T05:17:32.384Z,14.15
2023-04-18T05:18:37.508Z,13.40
2023-04-18T05:19:40.814Z,13.30
2023-04-18T05:20:43.704Z,12.60
2023-04-18T05:21:45.643Z,15.27
2023-04-18T05:22:48.513Z,14.02
2023-04-18T05:23:50.617Z,13.35
2023-04-18T05:24:53.461Z,15.77
2023-04-18T05:25:55.981Z,12.85
2023-04-18T05:26:58.894Z,14.10
2023-04-18T05:28:01.651Z,12.77
2023-04-18T05:29:04.597Z,13.02
2023-04-18T05:30:07.729Z,12.77
2023-04-18T05:31:10.861Z,15.15
2023-04-18T05:32:12.864Z,12.52
2023-04-18T05:33:16.134Z,15.18
2023-04-18T05:34:18.096Z,12.75
2023-04-18T05:35:22.383Z,12.80
2023-04-18T05:36:24.285Z,14.48
2023-04-18T05:37:27.214Z,14.13
2023-04-18T05:38:29.114Z,13.73
2023-04-18T05:39:32.037Z,12.70
2023-04-18T05:40:33.972Z,14.38
2023-04-18T05:41:37.104Z,14.63
2023-04-18T05:42:39.005Z,13.57
2023-04-18T05:43:43.014Z,15.85
2023-04-18T05:44:47.315Z,15.00
2023-04-18T05:45:49.250Z,14.70
2023-04-18T05:46:52.317Z,13.45
2023-04-18T05:47:54.315Z,13.77
2023-04-18T05:48:57.262Z,13.55
2023-04-18T05:49:59.332Z,13.80
2023-04-18T05:51:03.596Z,13.18
2023-04-18T05:52:05.636Z,13.85
2023-04-18T05:53:08.564Z,13.75
2023-04-18T05:54:10.499Z,13.75
2023-04-18T05:55:13.390Z,15.68
2023-04-18T05:56:16.174Z,14.35
2023-04-18T05:57:19.053Z,14.35
2023-04-18T05:58:20.955Z,13.10
2023-04-18T05:59:23.873Z,13.82
2023-04-18T06:00:25.824Z,12.75
2023-04-18T06:01:28.716Z,14.00
2023-04-18T06:02:30.975Z,14.57
2023-04-18T06:03:34.170Z,13.98
2023-04-18T06:04:36.407Z,14.55
2023-04-18T06:05:40.967Z,13.88
2023-04-18T06:06:45.327Z,14.20
2023-04-18T06:07:48.233Z,13.20
2023-04-18T06:08:51.071Z,14.15
2023-04-18T06:09:54.049Z,13.85
2023-04-18T06:10:56.909Z,15.20
2023-04-18T06:11:58.961Z,13.35
2023-04-18T06:13:01.866Z,14.23
2023-04-18T06:14:03.834Z,14.60
2023-04-18T06:15:07.762Z,13.75
2023-04-18T06:16:10.686Z,14.60
2023-04-18T06:17:12.813Z,13.60
2023-04-18T06:18:15.698Z,13.40
2023-04-18T06:19:17.567Z,13.40
2023-04-18T06:20:20.426Z,13.10
2023-04-18T06:21:23.331Z,14.82
2023-04-18T06:22:26.573Z,14.60
2023-04-18T06:23:29.455Z,14.98
2023-04-18T06:24:31.416Z,12.88
2023-04-18T06:25:34.261Z,12.20
2023-04-18T06:26:37.187Z,11.55
2023-04-18T06:27:40.098Z,12.93
2023-04-18T06:28:42.956Z,13.70
2023-04-18T06:29:44.885Z,13.57
2023-04-18T06:30:47.748Z,13.10
2023-04-18T06:31:52.185Z,13.32
2023-04-18T06:32:55.127Z,13.00
2023-04-18T06:33:56.998Z,15.43
2023-04-18T06:34:59.863Z,13.68
2023-04-18T06:36:01.810Z,14.80
2023-04-18T06:37:04.741Z,12.63
2023-04-18T06:38:09.107Z,13.32
2023-04-18T06:39:12.554Z,14.55
2023-04-18T06:40:15.557Z,13.48
2023-04-18T06:41:17.417Z,13.10
2023-04-18T06:42:22.197Z,13.13
2023-04-18T06:43:25.579Z,13.88
2023-04-18T06:44:27.436Z,15.35
2023-04-18T06:45:31.274Z,12.43
2023-04-18T06:46:33.344Z,13.82
2023-04-18T06:47:36.353Z,14.60
2023-04-18T06:48:39.369Z,15.18
2023-04-18T06:49:42.220Z,13.00
2023-04-18T06:50:44.791Z,14.07
2023-04-18T06:51:47.606Z,14.55
2023-04-18T06:52:49.485Z,12.55
2023-04-18T06:53:53.779Z,13.38
2023-04-18T06:54:56.698Z,14.88
2023-04-18T06:55:59.651Z,15.10
2023-04-18T06:57:03.400Z,15.85
2023-04-18T06:58:06.237Z,14.95
2023-04-18T06:59:08.076Z,14.38
2023-04-18T07:00:12.064Z,13.10
2023-04-18T07:01:13.936Z,14.32
2023-04-18T07:02:16.974Z,14.57
2023-04-18T07:03:20.054Z,15.50
2023-04-18T07:04:22.495Z,13.95
2023-04-18T07:05:25.465Z,14.75
2023-04-18T07:06:27.367Z,14.95
2023-04-18T07:07:30.226Z,15.25
2023-04-18T07:08:33.225Z,15.93
2023-04-18T07:09:37.422Z,15.90
2023-04-18T07:10:40.225Z,13.60
2023-04-18T07:11:43.742Z,15.40
2023-04-18T07:12:47.509Z,15.15
2023-04-18T07:13:50.482Z,15.05
2023-04-18T07:14:52.361Z,14.80
2023-04-18T07:15:55.311Z,15.02
2023-04-18T07:16:57.912Z,15.05
2023-04-18T07:18:00.883Z,15.48
2023-04-18T07:19:02.823Z,14.88
2023-04-18T07:20:06.812Z,14.20
2023-04-18T07:21:08.736Z,12.25
2023-04-18T07:22:11.793Z,12.93
2023-04-18T07:23:13.615Z,13.55
2023-04-18T07:24:16.624Z,13.57
2023-04-18T07:25:21.059Z,14.20
2023-04-18T07:26:23.078Z,14.43
2023-04-18T07:27:26.011Z,15.98
2023-04-18T07:28:27.992Z,13.88
2023-04-18T07:29:30.958Z,13.43
2023-04-18T07:30:33.838Z,14.32
2023-04-18T07:31:35.897Z,14.00
2023-04-18T07:32:39.178Z,13.93
2023-04-18T07:33:41.072Z,14.80
2023-04-18T07:34:45.036Z,14.30
2023-04-18T07:35:48.066Z,13.95
2023-04-18T07:36:50.043Z,14.20
2023-04-18T07:37:53.967Z,13.65
2023-04-18T07:38:56.848Z,13.43
2023-04-18T07:39:59.871Z,13.95
2023-04-18T07:41:05.154Z,14.07
2023-04-18T07:42:08.106Z,14.70
2023-04-18T07:43:10.931Z,13.40
2023-04-18T07:44:12.933Z,13.07
2023-04-18T07:45:16.516Z,13.80
2023-04-18T07:46:19.524Z,12.32
2023-04-18T07:47:22.615Z,12.13
2023-04-18T07:48:26.186Z,12.90
2023-04-18T07:49:28.103Z,14.05
2023-04-18T07:50:31.079Z,11.93
2023-04-18T07:51:34.940Z,13.20
2023-04-18T07:52:39.309Z,12.02
2023-04-18T07:53:41.755Z,12.35
2023-04-18T07:54:44.578Z,11.85
2023-04-18T07:55:46.549Z,11.07
2023-04-18T07:56:50.747Z,12.70
2023-04-18T07:57:53.555Z,13.70
2023-04-18T07:58:56.848Z,12.77
2023-04-18T07:59:58.742Z,12.43
2023-04-18T08:01:01.599Z,14.65
2023-04-18T08:02:04.586Z,12.10
2023-04-18T08:03:07.624Z,12.55
2023-04-18T08:04:10.771Z,10.90
2023-04-18T08:05:13.844Z,11.43
2023-04-18T08:06:16.831Z,12.60
2023-04-18T08:07:19.738Z,10.88
2023-04-18T08:08:21.785Z,11.55
2023-04-18T08:09:26.132Z,12.73
2023-04-18T08:10:28.721Z,11.40
2023-04-18T08:11:31.806Z,12.43
2023-04-18T08:12:36.500Z,11.90
2023-04-18T08:13:39.522Z,10.45
2023-04-18T08:14:41.738Z,11.95
2023-04-18T08:15:44.694Z,10.82
2023-04-18T08:16:47.653Z,11.27
2023-04-18T08:17:49.574Z,10.88
2023-04-18T08:18:52.946Z,11.38
2023-04-18T08:19:55.859Z,10.50
2023-04-18T08:20:57.721Z,11.40
2023-04-18T08:22:10.013Z,11.75
2023-04-18T08:23:13.357Z,12.05
2023-04-18T08:24:15.435Z,9.88
2023-04-18T08:25:18.463Z,11.50
2023-04-18T08:26:21.828Z,8.95
2023-04-18T08:27:23.742Z,10.93
2023-04-18T08:28:27.961Z,11.13
2023-04-18T08:29:29.892Z,11.13
2023-04-18T08:30:33.401Z,11.30
2023-04-18T08:31:35.500Z,12.05
2023-04-18T08:32:38.445Z,11.45
2023-04-18T08:33:41.693Z,10.85
2023-04-18T08:34:44.879Z,10.60
2023-04-18T08:35:47.712Z,10.88
2023-04-18T08:36:51.197Z,11.30
2023-04-18T08:37:54.020Z,12.30
2023-04-18T08:38:56.857Z,11.63
2023-04-18T08:39:58.771Z,10.82
2023-04-18T08:41:01.785Z,8.95
2023-04-18T08:42:07.370Z,10.23
2023-04-18T08:43:12.722Z,12.55
2023-04-18T08:44:17.686Z,10.55
2023-04-18T08:45:21.832Z,10.68
2023-04-18T08:46:24.810Z,13.73
2023-04-18T08:47:29.081Z,10.55
2023-04-18T08:48:31.928Z,11.30
2023-04-18T08:49:33.825Z,10.30
2023-04-18T08:50:36.683Z,11.70
2023-04-18T08:51:40.069Z,11.40
2023-04-18T08:52:48.812Z,13.02
2023-04-18T08:53:51.725Z,12.23
2023-04-18T08:54:53.572Z,12.30
2023-04-18T08:55:57.897Z,13.45
2023-04-18T08:57:06.499Z,11.50
2023-04-18T08:58:12.376Z,12.88
2023-04-18T08:59:18.411Z,11.93
2023-04-18T09:00:20.592Z,11.63
2023-04-18T09:01:23.721Z,12.30
2023-04-18T09:02:38.967Z,13.90
2023-04-18T09:03:44.212Z,11.68
2023-04-18T09:04:49.032Z,11.60
2023-04-18T09:06:08.324Z,10.40
2023-04-18T09:07:13.148Z,11.43
2023-04-18T09:08:24.569Z,11.05
2023-04-18T09:09:28.064Z,10.10
2023-04-18T09:10:33.600Z,11.65
2023-04-18T09:11:35.853Z,11.73
2023-04-18T09:12:50.000Z,12.77
2023-04-18T09:13:55.976Z,12.65
2023-04-18T09:15:14.750Z,11.95
2023-04-18T09:16:19.361Z,10.55
2023-04-18T09:17:33.336Z,12.65
2023-04-18T09:18:36.304Z,11.05
2023-04-18T09:19:48.791Z,12.63
2023-04-18T09:20:53.287Z,11.77
2023-04-18T09:21:58.529Z,11.30
2023-04-18T09:23:03.818Z,10.63
2023-04-18T09:24:17.654Z,11.95
2023-04-18T09:25:29.394Z,10.95
2023-04-18T09:26:36.241Z,11.43
2023-04-18T09:27:39.187Z,11.23
2023-04-18T09:28:42.249Z,10.88
2023-04-18T09:29:46.993Z,12.23
2023-04-18T09:30:53.108Z,10.70
2023-04-18T09:32:03.188Z,10.68
2023-04-18T09:33:09.494Z,11.45
2023-04-18T09:34:24.833Z,10.10
2023-04-18T09:35:28.385Z,10.48
2023-04-18T09:36:31.401Z,9.45
2023-04-18T09:37:34.367Z,11.00
2023-04-18T09:38:40.253Z,10.60
2023-04-18T09:39:44.971Z,10.32
2023-04-18T09:40:46.842Z,11.52
2023-04-18T09:41:59.029Z,10.35
2023-04-18T09:43:02.123Z,9.98
2023-04-18T09:44:14.655Z,10.02
2023-04-18T09:45:18.343Z,10.98
2023-04-18T09:46:22.694Z,10.60
2023-04-18T09:47:25.790Z,11.60
2023-04-18T09:48:28.729Z,9.90
2023-04-18T09:49:31.637Z,10.50
2023-04-18T09:50:36.724Z,10.52
2023-04-18T09:51:41.586Z,10.75
2023-04-18T09:52:45.904Z,10.55
2023-04-18T09:53:50.157Z,11.52
2023-04-18T09:54:58.294Z,9.65
2023-04-18T09:56:02.237Z,9.35
2023-04-18T09:57:09.960Z,10.02
2023-04-18T09:58:14.178Z,10.27
2023-04-18T09:59:26.932Z,9.65
2023-04-18T10:00:32.041Z,11.90
2023-04-18T10:01:35.796Z,10.75
2023-04-18T10:02:48.692Z,9.85
2023-04-18T10:03:52.136Z,9.98
2023-04-18T10:04:56.953Z,9.63
2023-04-18T10:05:59.013Z,10.88
2023-04-18T10:07:03.502Z,10.38
2023-04-18T10:08:07.977Z,10.10
2023-04-18T10:09:10.108Z,10.20
2023-04-18T10:10:13.293Z,8.60
2023-04-18T10:11:18.015Z,10.25
2023-04-18T10:12:21.161Z,9.80
2023-04-18T10:13:25.752Z,9.73
2023-04-18T10:14:28.540Z,9.23
2023-04-18T10:15:32.826Z,10.13
2023-04-18T10:16:38.666Z,9.90
2023-04-18T10:17:56.262Z,9.50
2023-04-18T10:19:28.259Z,10.45
2023-04-18T10:20:32.569Z,9.70
2023-04-18T10:21:34.513Z,9.85
2023-04-18T10:22:37.340Z,10.05
2023-04-18T10:23:39.952Z,10.35
2023-04-18T10:24:54.164Z,10.90
2023-04-18T10:25:57.096Z,10.00
2023-04-18T10:26:58.878Z,10.93
2023-04-18T10:28:03.353Z,10.80
2023-04-18T10:29:06.367Z,11.45
2023-04-18T10:30:09.351Z,10.32
2023-04-18T10:31:12.297Z,10.30
2023-04-18T10:32:15.978Z,11.05
2023-04-18T10:33:32.013Z,10.68
2023-04-18T10:34:38.087Z,10.88
2023-04-18T10:35:56.386Z,10.75
2023-04-18T10:37:05.767Z,10.30
2023-04-18T10:38:16.698Z,9.95
2023-04-18T10:39:25.579Z,10.57
2023-04-18T10:40:33.095Z,10.07
2023-04-18T10:41:38.271Z,10.70
2023-04-18T10:42:58.559Z,10.55
2023-04-18T10:44:22.786Z,11.30
2023-04-18T10:45:28.457Z,10.63
2023-04-18T10:46:32.814Z,11.00
2023-04-18T10:47:37.457Z,10.57
2023-04-18T10:48:39.460Z,8.80
2023-04-18T10:49:55.124Z,11.20
2023-04-18T10:51:17.867Z,9.40
2023-04-18T10:52:19.727Z,9.57
2023-04-18T10:53:22.613Z,9.10
2023-04-18T10:54:30.812Z,8.70
2023-04-18T10:55:33.880Z,9.35
2023-04-18T10:56:36.163Z,11.15
2023-04-18T10:57:43.183Z,9.68
2023-04-18T10:58:51.573Z,10.15
2023-04-18T10:59:54.798Z,9.20
2023-04-18T11:00:58.111Z,8.93
2023-04-18T11:02:10.922Z,9.68
2023-04-18T11:03:15.379Z,7.60
2023-04-18T11:04:18.766Z,8.80
2023-04-18T11:05:23.425Z,8.77
2023-04-18T11:06:27.658Z,9.30
2023-04-18T11:07:34.078Z,8.27
2023-04-18T11:08:36.954Z,9.45
2023-04-18T11:09:38.851Z,7.68
2023-04-18T11:10:41.686Z,8.55
2023-04-18T11:11:44.193Z,8.00
2023-04-18T11:12:47.537Z,8.73
2023-04-18T11:13:57.609Z,7.75
2023-04-18T11:15:03.105Z,8.35
2023-04-18T11:16:06.887Z,8.35
2023-04-18T11:17:16.792Z,8.30
2023-04-18T11:18:22.829Z,8.07
2023-04-18T11:19:24.969Z,7.68
2023-04-18T11:20:31.195Z,9.02
2023-04-18T11:21:35.080Z,8.73
2023-04-18T11:22:46.547Z,9.70
2023-04-18T11:23:49.719Z,8.52
2023-04-18T11:24:54.017Z,8.05
2023-04-18T11:25:58.211Z,9.73
2023-04-18T11:27:00.712Z,8.30
2023-04-18T11:28:05.238Z,8.18
2023-04-18T11:29:07.117Z,7.65
2023-04-18T11:30:11.180Z,8.02
2023-04-18T11:31:17.100Z,8.10
2023-04-18T11:32:19.036Z,8.00
2023-04-18T11:33:24.427Z,7.15
2023-04-18T11:34:30.158Z,7.38
2023-04-18T11:35:38.708Z,8.82
2023-04-18T11:36:41.357Z,8.40
2023-04-18T11:37:45.995Z,7.95
2023-04-18T11:38:49.153Z,8.35
2023-04-18T11:39:53.306Z,7.32
2023-04-18T11:40:56.245Z,7.32
2023-04-18T11:41:59.402Z,7.93
2023-04-18T11:43:03.293Z,7.03
2023-04-18T11:44:07.407Z,8.23
2023-04-18T11:45:12.859Z,8.10
2023-04-18T11:46:15.877Z,8.35
2023-04-18T11:47:24.929Z,7.80
2023-04-18T11:48:37.660Z,7.40
2023-04-18T11:49:40.612Z,7.45
2023-04-18T11:50:42.727Z,7.65
2023-04-18T11:51:47.397Z,7.60
2023-04-18T11:52:51.820Z,8.25
2023-04-18T11:53:53.761Z,7.00
2023-04-18T11:54:57.444Z,7.80
2023-04-18T11:56:00.418Z,8.85
2023-04-18T11:57:04.306Z,8.43
2023-04-18T11:58:07.456Z,8.20
2023-04-18T11:59:09.654Z,7.88
2023-04-18T12:00:13.938Z,8.63
2023-04-18T12:01:18.515Z,8.45
2023-04-18T12:02:21.908Z,6.18
2023-04-18T12:03:25.432Z,7.70
2023-04-18T12:04:30.116Z,9.35
2023-04-18T12:05:36.935Z,7.13
2023-04-18T12:06:48.519Z,8.18
2023-04-18T12:07:51.439Z,8.43
2023-04-18T12:08:58.690Z,8.68
2023-04-18T12:10:01.704Z,7.63
2023-04-18T12:11:04.699Z,8.13
2023-04-18T12:12:06.747Z,8.13
2023-04-18T12:13:10.083Z,8.05
2023-04-18T12:14:21.509Z,7.18
2023-04-18T12:15:27.244Z,7.28
2023-04-18T12:16:30.795Z,8.25
2023-04-18T12:17:33.872Z,7.75
2023-04-18T12:18:36.880Z,9.05
2023-04-18T12:19:46.217Z,7.93
2023-04-18T12:20:51.667Z,7.07
2023-04-18T12:22:00.564Z,6.63
2023-04-18T12:23:04.564Z,7.40
2023-04-18T12:24:15.436Z,6.88
2023-04-18T12:25:26.706Z,7.45
2023-04-18T12:26:29.447Z,7.88
2023-04-18T12:27:50.479Z,6.53
2023-04-18T12:28:53.961Z,9.43
2023-04-18T12:29:55.886Z,6.78
2023-04-18T12:30:59.397Z,7.35
2023-04-18T12:32:01.700Z,6.40
2023-04-18T12:33:05.314Z,7.60
2023-04-18T12:34:07.296Z,7.43
2023-04-18T12:35:11.787Z,8.68
2023-04-18T12:36:14.793Z,8.32
2023-04-18T12:37:16.755Z,7.22
2023-04-18T12:38:22.406Z,7.65
2023-04-18T12:39:25.969Z,6.20
2023-04-18T12:40:30.290Z,6.30
2023-04-18T12:41:32.209Z,7.07
2023-04-18T12:42:35.220Z,6.93
2023-04-18T12:43:38.166Z,5.85
2023-04-18T12:44:40.096Z,6.78
2023-04-18T12:45:43.171Z,6.50
2023-04-18T12:46:46.111Z,5.13
2023-04-18T12:47:50.318Z,9.68
2023-04-18T12:48:53.262Z,7.63
2023-04-18T12:49:55.183Z,6.93
2023-04-18T12:50:59.419Z,7.93
2023-04-18T12:52:01.298Z,6.43
2023-04-18T12:53:04.636Z,6.18
2023-04-18T12:54:07.522Z,6.88
2023-04-18T12:55:10.322Z,7.50
2023-04-18T12:56:13.327Z,7.00
2023-04-18T12:57:15.719Z,6.78
2023-04-18T12:58:20.492Z,6.60
2023-04-18T12:59:22.346Z,6.55
2023-04-18T13:00:27.466Z,8.32
2023-04-18T13:01:29.592Z,6.72
2023-04-18T13:02:35.294Z,6.82
2023-04-18T13:03:38.728Z,7.35
2023-04-18T13:04:41.107Z,6.95
2023-04-18T13:05:44.238Z,6.28
2023-04-18T13:06:48.529Z,6.82
2023-04-18T13:07:58.620Z,6.35
2023-04-18T13:09:08.245Z,6.15
2023-04-18T13:10:12.438Z,6.43
2023-04-18T13:11:15.440Z,6.18
2023-04-18T13:12:17.352Z,5.95
2023-04-18T13:13:20.237Z,5.65
2023-04-18T13:14:22.258Z,6.40
2023-04-18T13:15:27.405Z,6.38
2023-04-18T13:16:30.362Z,7.00
2023-04-18T13:17:33.646Z,7.82
2023-04-18T13:18:36.585Z,7.70
2023-04-18T13:19:38.509Z,7.40
2023-04-18T13:20:41.525Z,6.50
2023-04-18T13:21:43.463Z,6.65
2023-04-18T13:22:47.709Z,6.43
2023-04-18T13:23:49.578Z,6.20
2023-04-18T13:24:53.036Z,5.30
2023-04-18T13:25:55.948Z,6.20
2023-04-18T13:26:57.921Z,5.82
2023-04-18T13:28:01.136Z,5.90
2023-04-18T13:29:03.561Z,6.78
2023-04-18T13:30:07.981Z,6.35
2023-04-18T13:31:09.901Z,6.80
2023-04-18T13:32:13.011Z,6.15
2023-04-18T13:33:15.884Z,7.68
2023-04-18T13:34:17.873Z,6.80
2023-04-18T13:35:20.903Z,6.07
2023-04-18T13:36:23.915Z,7.10
2023-04-18T13:37:27.719Z,6.47
2023-04-18T13:38:31.891Z,7.55
2023-04-18T13:39:33.784Z,8.45
2023-04-18T13:40:38.789Z,7.32
2023-04-18T13:41:40.749Z,6.78
2023-04-18T13:42:44.196Z,7.82
2023-04-18T13:43:46.299Z,7.10
2023-04-18T13:44:50.090Z,7.15
2023-04-18T13:45:55.090Z,7.40
2023-04-18T13:46:57.031Z,6.80
2023-04-18T13:48:00.027Z,7.78
2023-04-18T13:49:02.253Z,7.97
2023-04-18T13:50:05.754Z,7.07
2023-04-18T13:51:07.609Z,6.80
2023-04-18T13:52:10.622Z,6.72
2023-04-18T13:53:13.439Z,6.68
2023-04-18T13:54:16.864Z,5.95
2023-04-18T13:55:19.800Z,7.38
2023-04-18T13:56:21.755Z,7.75
2023-04-18T13:57:24.616Z,6.75
2023-04-18T13:58:26.487Z,7.43
2023-04-18T13:59:29.838Z,6.70